PWSweather.com
Personal Weather Stations
Station Observations
KNHRINDG3
Converse Meadow Pond, Rindge, NH 03461

Converse Meadow PondRindge, NH 03461

Lat: 42.74, Lon: -71.98

Elevation: 1060

Station Type: Davis Vantage Pro 2

http://nhwoodworker.com/weather/index.php

High Low Average
Temperature 79.8°F26.6°F 44.3°F6.8°F 65.2°F18.4°F
Dew Point 48.4°F9.1°F 30.9°F-0.6°F 40.1°F4.5°F
Winds 4.6 mph E7.4 mph E Calm Calm 1.3 mph 2.1 mph
Wind Gusts 17.3 mph27.8 mph -- 4.0 mph6.4 mph
Humidity 69% 24% 43%
Pressure 30.26 in1024.70 in 30.13 in1020.30 in -
Precipitation 0.00 in0.00 in - -
Hour Temp Dew Point Humidity Winds Wind Gusts Pressure Precip Precip Rate Daily Precip Total
12:00 AM 48.2°F9.0°C 31.4°F-0.3°C 52% 1.2 mph SW1.9 kmh SW 4.6 mph7.4 kmh 30.26 in1024.7 mb - 0.00 in0.0 mm 0.00 in0.0 mm
12:11 AM 48.2°F9.0°C 30.9°F-0.6°C 51% Calm Calm 1.2 mph1.9 kmh 30.25 in1024.4 mb - 0.00 in0.0 mm 0.00 in0.0 mm
12:20 AM 48.2°F9.0°C 31.4°F-0.3°C 52% Calm Calm 1.2 mph1.9 kmh 30.26 in1024.7 mb - 0.00 in0.0 mm 0.00 in0.0 mm
12:30 AM 47.9°F8.8°C 31.6°F-0.2°C 53% Calm Calm -- 30.26 in1024.7 mb - 0.00 in0.0 mm 0.00 in0.0 mm
12:40 AM 47.2°F8.4°C 31.8°F-0.1°C 55% Calm Calm 2.3 mph3.7 kmh 30.26 in1024.7 mb - 0.00 in0.0 mm 0.00 in0.0 mm
12:50 AM 46.7°F8.2°C 32.3°F0.2°C 57% 1.2 mph WSW1.9 kmh WSW 1.2 mph1.9 kmh 30.26 in1024.7 mb - 0.00 in0.0 mm 0.00 in0.0 mm
01:00 AM 46.8°F8.2°C 32.0°F0.0°C 56% Calm Calm -- 30.26 in1024.7 mb - 0.00 in0.0 mm 0.00 in0.0 mm
01:10 AM 46.9°F8.3°C 32.4°F0.2°C 57% 1.2 mph SSW1.9 kmh SSW 3.5 mph5.6 kmh 30.26 in1024.7 mb - 0.00 in0.0 mm 0.00 in0.0 mm
01:20 AM 46.9°F8.3°C 32.9°F0.5°C 58% Calm Calm 3.5 mph5.6 kmh 30.26 in1024.7 mb - 0.00 in0.0 mm 0.00 in0.0 mm
01:30 AM 46.8°F8.2°C 32.8°F0.4°C 58% Calm Calm 1.2 mph1.9 kmh 30.25 in1024.4 mb - 0.00 in0.0 mm 0.00 in0.0 mm
01:40 AM 46.8°F8.2°C 32.8°F0.4°C 58% Calm Calm 3.5 mph5.6 kmh 30.26 in1024.7 mb - 0.00 in0.0 mm 0.00 in0.0 mm
01:50 AM 46.8°F8.2°C 33.7°F0.9°C 60% Calm Calm 1.2 mph1.9 kmh 30.26 in1024.7 mb - 0.00 in0.0 mm 0.00 in0.0 mm
02:00 AM 46.3°F7.9°C 33.6°F0.9°C 61% Calm Calm 1.2 mph1.9 kmh 30.26 in1024.7 mb - 0.00 in0.0 mm 0.00 in0.0 mm
02:10 AM 46.0°F7.8°C 33.7°F0.9°C 62% Calm Calm 1.2 mph1.9 kmh 30.26 in1024.7 mb - 0.00 in0.0 mm 0.00 in0.0 mm
02:20 AM 46.1°F7.8°C 34.2°F1.2°C 63% Calm Calm 1.2 mph1.9 kmh 30.25 in1024.4 mb - 0.00 in0.0 mm 0.00 in0.0 mm
02:30 AM 46.0°F7.8°C 34.1°F1.2°C 63% Calm Calm 2.3 mph3.7 kmh 30.25 in1024.4 mb - 0.00 in0.0 mm 0.00 in0.0 mm
02:40 AM 46.0°F7.8°C 33.7°F0.9°C 62% Calm Calm -- 30.25 in1024.4 mb - 0.00 in0.0 mm 0.00 in0.0 mm
02:50 AM 45.9°F7.7°C 34.4°F1.3°C 64% Calm Calm 1.2 mph1.9 kmh 30.25 in1024.4 mb - 0.00 in0.0 mm 0.00 in0.0 mm
03:00 AM 45.8°F7.7°C 34.3°F1.3°C 64% Calm Calm 1.2 mph1.9 kmh 30.25 in1024.4 mb - 0.00 in0.0 mm 0.00 in0.0 mm
03:10 AM 45.9°F7.7°C 34.0°F1.1°C 63% Calm Calm -- 30.25 in1024.4 mb - 0.00 in0.0 mm 0.00 in0.0 mm
03:20 AM 45.8°F7.7°C 34.3°F1.3°C 64% 1.2 mph WSW1.9 kmh WSW 3.5 mph5.6 kmh 30.25 in1024.4 mb - 0.00 in0.0 mm 0.00 in0.0 mm
03:30 AM 45.5°F7.5°C 34.4°F1.3°C 65% Calm Calm 1.2 mph1.9 kmh 30.25 in1024.4 mb - 0.00 in0.0 mm 0.00 in0.0 mm
03:40 AM 45.0°F7.2°C 34.7°F1.5°C 67% Calm Calm -- 30.25 in1024.4 mb - 0.00 in0.0 mm 0.00 in0.0 mm
03:50 AM 44.7°F7.1°C 34.7°F1.5°C 68% Calm Calm -- 30.25 in1024.4 mb - 0.00 in0.0 mm 0.00 in0.0 mm
04:00 AM 44.3°F6.8°C 34.8°F1.6°C 69% Calm Calm 1.2 mph1.9 kmh 30.25 in1024.4 mb - 0.00 in0.0 mm 0.00 in0.0 mm
11:40 AM 72.6°F22.6°C 40.2°F4.6°C 31% 3.5 mph NNW5.6 kmh NNW 8.1 mph13.0 kmh 30.22 in1023.4 mb - 0.00 in0.0 mm 0.00 in0.0 mm
11:50 AM 73.8°F23.2°C 42.9°F6.1°C 33% 2.3 mph N3.7 kmh N 4.6 mph7.4 kmh 30.21 in1023.0 mb - 0.00 in0.0 mm 0.00 in0.0 mm
12:00 PM 73.9°F23.3°C 42.2°F5.7°C 32% 2.3 mph NNE3.7 kmh NNE 4.6 mph7.4 kmh 30.21 in1023.0 mb - 0.00 in0.0 mm 0.00 in0.0 mm
12:10 PM 74.0°F23.3°C 42.3°F5.7°C 32% 2.3 mph NNE3.7 kmh NNE 4.6 mph7.4 kmh 30.21 in1023.0 mb - 0.00 in0.0 mm 0.00 in0.0 mm
12:30 PM 75.3°F24.1°C 40.9°F4.9°C 29% 2.3 mph SW3.7 kmh SW 3.5 mph5.6 kmh 30.20 in1022.7 mb - 0.00 in0.0 mm 0.00 in0.0 mm
12:40 PM 75.4°F24.1°C 40.9°F4.9°C 29% 2.3 mph S3.7 kmh S 3.5 mph5.6 kmh 30.20 in1022.7 mb - 0.00 in0.0 mm 0.00 in0.0 mm
12:50 PM 75.5°F24.2°C 41.0°F5.0°C 29% 2.3 mph S3.7 kmh S 5.8 mph9.3 kmh 30.20 in1022.7 mb - 0.00 in0.0 mm 0.00 in0.0 mm
01:00 PM 75.6°F24.2°C 41.1°F5.1°C 29% 2.3 mph S3.7 kmh S 10.4 mph16.7 kmh 30.20 in1022.7 mb - 0.00 in0.0 mm 0.00 in0.0 mm
01:10 PM 75.8°F24.3°C 40.3°F4.6°C 28% 2.3 mph S3.7 kmh S 10.4 mph16.7 kmh 30.20 in1022.7 mb - 0.00 in0.0 mm 0.00 in0.0 mm
01:20 PM 76.1°F24.5°C 40.6°F4.8°C 28% 2.3 mph S3.7 kmh S 10.4 mph16.7 kmh 30.19 in1022.4 mb - 0.00 in0.0 mm 0.00 in0.0 mm
01:30 PM 76.5°F24.7°C 41.0°F5.0°C 28% 2.3 mph S3.7 kmh S 10.4 mph16.7 kmh 30.19 in1022.4 mb - 0.00 in0.0 mm 0.00 in0.0 mm
01:40 PM 77.0°F25.0°C 41.4°F5.2°C 28% 2.3 mph SE3.7 kmh SE 10.4 mph16.7 kmh 30.18 in1022.0 mb - 0.00 in0.0 mm 0.00 in0.0 mm
02:00 PM 78.9°F26.1°C 41.1°F5.1°C 26% 3.5 mph SE5.6 kmh SE 6.9 mph11.1 kmh 30.17 in1021.7 mb - 0.00 in0.0 mm 0.00 in0.0 mm
02:10 PM 78.8°F26.0°C 41.0°F5.0°C 26% 3.5 mph SE5.6 kmh SE 6.9 mph11.1 kmh 30.17 in1021.7 mb - 0.00 in0.0 mm 0.00 in0.0 mm
02:20 PM 78.3°F25.7°C 41.5°F5.3°C 27% 2.3 mph N3.7 kmh N 8.1 mph13.0 kmh 30.17 in1021.7 mb - 0.00 in0.0 mm 0.00 in0.0 mm
02:30 PM 78.4°F25.8°C 41.6°F5.3°C 27% 2.3 mph N3.7 kmh N 8.1 mph13.0 kmh 30.17 in1021.7 mb - 0.00 in0.0 mm 0.00 in0.0 mm
02:40 PM 78.9°F26.1°C 42.0°F5.6°C 27% 3.5 mph NW5.6 kmh NW 8.1 mph13.0 kmh 30.16 in1021.3 mb - 0.00 in0.0 mm 0.00 in0.0 mm
02:50 PM 79.1°F26.2°C 41.2°F5.1°C 26% 3.5 mph NW5.6 kmh NW 10.4 mph16.7 kmh 30.16 in1021.3 mb - 0.00 in0.0 mm 0.00 in0.0 mm
03:00 PM 79.2°F26.2°C 41.3°F5.2°C 26% 3.5 mph NNW5.6 kmh NNW 10.4 mph16.7 kmh 30.16 in1021.3 mb - 0.00 in0.0 mm 0.00 in0.0 mm
03:10 PM 79.0°F26.1°C 40.1°F4.5°C 25% 4.6 mph NNE7.4 kmh NNE 17.3 mph27.8 kmh 30.16 in1021.3 mb - 0.00 in0.0 mm 0.00 in0.0 mm
03:20 PM 78.4°F25.8°C 40.7°F4.8°C 26% 2.3 mph SE3.7 kmh SE 9.2 mph14.8 kmh 30.16 in1021.3 mb - 0.00 in0.0 mm 0.00 in0.0 mm
03:30 PM 78.5°F25.8°C 40.7°F4.8°C 26% 2.3 mph SE3.7 kmh SE 9.2 mph14.8 kmh 30.15 in1021.0 mb - 0.00 in0.0 mm 0.00 in0.0 mm
03:40 PM 78.6°F25.9°C 40.8°F4.9°C 26% 2.3 mph E3.7 kmh E 9.2 mph14.8 kmh 30.15 in1021.0 mb - 0.00 in0.0 mm 0.00 in0.0 mm
03:50 PM 78.7°F25.9°C 40.9°F4.9°C 26% 3.5 mph E5.6 kmh E 11.5 mph18.5 kmh 30.15 in1021.0 mb - 0.00 in0.0 mm 0.00 in0.0 mm
04:00 PM 79.1°F26.2°C 40.2°F4.6°C 25% 4.6 mph E7.4 kmh E 11.5 mph18.5 kmh 30.15 in1021.0 mb - 0.00 in0.0 mm 0.00 in0.0 mm
04:10 PM 79.1°F26.2°C 40.2°F4.6°C 25% 4.6 mph E7.4 kmh E 11.5 mph18.5 kmh 30.15 in1021.0 mb - 0.00 in0.0 mm 0.00 in0.0 mm
04:20 PM 79.8°F26.6°C 39.8°F4.3°C 24% 3.5 mph N5.6 kmh N 6.9 mph11.1 kmh 30.14 in1020.7 mb - 0.00 in0.0 mm 0.00 in0.0 mm
04:30 PM 79.8°F26.6°C 39.8°F4.3°C 24% 3.5 mph N5.6 kmh N 6.9 mph11.1 kmh 30.14 in1020.7 mb - 0.00 in0.0 mm 0.00 in0.0 mm
04:40 PM 79.6°F26.4°C 39.6°F4.2°C 24% 2.3 mph N3.7 kmh N 3.5 mph5.6 kmh 30.14 in1020.7 mb - 0.00 in0.0 mm 0.00 in0.0 mm
05:00 PM 78.3°F25.7°C 39.6°F4.2°C 25% 2.3 mph NE3.7 kmh NE 4.6 mph7.4 kmh 30.14 in1020.7 mb - 0.00 in0.0 mm 0.00 in0.0 mm
05:10 PM 78.3°F25.7°C 39.6°F4.2°C 25% 2.3 mph NE3.7 kmh NE 3.5 mph5.6 kmh 30.14 in1020.7 mb - 0.00 in0.0 mm 0.00 in0.0 mm
05:20 PM 78.1°F25.6°C 40.4°F4.7°C 26% 2.3 mph ENE3.7 kmh ENE 8.1 mph13.0 kmh 30.14 in1020.7 mb - 0.00 in0.0 mm 0.00 in0.0 mm
05:30 PM 78.1°F25.6°C 40.4°F4.7°C 26% 2.3 mph ESE3.7 kmh ESE 8.1 mph13.0 kmh 30.14 in1020.7 mb - 0.00 in0.0 mm 0.00 in0.0 mm
05:40 PM 77.9°F25.5°C 40.2°F4.6°C 26% 2.3 mph S3.7 kmh S 8.1 mph13.0 kmh 30.14 in1020.7 mb - 0.00 in0.0 mm 0.00 in0.0 mm
05:50 PM 77.8°F25.4°C 41.1°F5.1°C 27% 2.3 mph S3.7 kmh S 8.1 mph13.0 kmh 30.14 in1020.7 mb - 0.00 in0.0 mm 0.00 in0.0 mm
06:00 PM 77.2°F25.1°C 41.5°F5.3°C 28% 2.3 mph SW3.7 kmh SW 6.9 mph11.1 kmh 30.13 in1020.3 mb - 0.00 in0.0 mm 0.00 in0.0 mm
06:10 PM 76.2°F24.6°C 41.6°F5.3°C 29% 1.2 mph S1.9 kmh S 3.5 mph5.6 kmh 30.14 in1020.7 mb - 0.00 in0.0 mm 0.00 in0.0 mm
06:20 PM 76.2°F24.6°C 41.6°F5.3°C 29% 1.2 mph SSW1.9 kmh SSW 4.6 mph7.4 kmh 30.14 in1020.7 mb - 0.00 in0.0 mm 0.00 in0.0 mm
06:30 PM 76.0°F24.4°C 41.5°F5.3°C 29% 2.3 mph SSW3.7 kmh SSW 4.6 mph7.4 kmh 30.14 in1020.7 mb - 0.00 in0.0 mm 0.00 in0.0 mm
06:40 PM 74.8°F23.8°C 41.3°F5.2°C 30% 2.3 mph SE3.7 kmh SE 3.5 mph5.6 kmh 30.14 in1020.7 mb - 0.00 in0.0 mm 0.00 in0.0 mm
06:50 PM 74.8°F23.8°C 41.2°F5.1°C 30% 2.3 mph SSE3.7 kmh SSE 2.3 mph3.7 kmh 30.14 in1020.7 mb - 0.00 in0.0 mm 0.00 in0.0 mm
07:00 PM 73.9°F23.3°C 43.0°F6.1°C 33% Calm Calm 2.3 mph3.7 kmh 30.14 in1020.7 mb - 0.00 in0.0 mm 0.00 in0.0 mm
07:20 PM 73.2°F22.9°C 43.9°F6.6°C 35% Calm Calm 1.2 mph1.9 kmh 30.14 in1020.7 mb - 0.00 in0.0 mm 0.00 in0.0 mm
07:30 PM 72.1°F22.3°C 42.9°F6.1°C 35% Calm Calm 1.2 mph1.9 kmh 30.14 in1020.7 mb - 0.00 in0.0 mm 0.00 in0.0 mm
07:40 PM 72.0°F22.2°C 42.8°F6.0°C 35% Calm Calm 1.2 mph1.9 kmh 30.14 in1020.7 mb - 0.00 in0.0 mm 0.00 in0.0 mm
08:00 PM 69.6°F20.9°C 44.8°F7.1°C 41% Calm Calm -- 30.15 in1021.0 mb - 0.00 in0.0 mm 0.00 in0.0 mm
08:10 PM 68.9°F20.5°C 45.5°F7.5°C 43% Calm Calm -- 30.15 in1021.0 mb - 0.00 in0.0 mm 0.00 in0.0 mm
08:20 PM 66.5°F19.2°C 46.2°F7.9°C 48% Calm Calm -- 30.15 in1021.0 mb - 0.00 in0.0 mm 0.00 in0.0 mm
08:30 PM 66.4°F19.1°C 46.1°F7.8°C 48% Calm Calm -- 30.15 in1021.0 mb - 0.00 in0.0 mm 0.00 in0.0 mm
08:40 PM 66.1°F18.9°C 45.9°F7.7°C 48% Calm Calm -- 30.15 in1021.0 mb - 0.00 in0.0 mm 0.00 in0.0 mm
08:50 PM 65.4°F18.6°C 45.8°F7.7°C 49% Calm Calm -- 30.16 in1021.3 mb - 0.00 in0.0 mm 0.00 in0.0 mm
09:00 PM 64.6°F18.1°C 45.6°F7.6°C 50% Calm Calm 1.2 mph1.9 kmh 30.16 in1021.3 mb - 0.00 in0.0 mm 0.00 in0.0 mm
09:10 PM 63.5°F17.5°C 45.1°F7.3°C 51% Calm Calm 1.2 mph1.9 kmh 30.17 in1021.7 mb - 0.00 in0.0 mm 0.00 in0.0 mm
09:20 PM 63.4°F17.4°C 44.9°F7.2°C 51% Calm Calm 1.2 mph1.9 kmh 30.17 in1021.7 mb - 0.00 in0.0 mm 0.00 in0.0 mm
09:40 PM 62.2°F16.8°C 46.4°F8.0°C 56% Calm Calm -- 30.18 in1022.0 mb - 0.00 in0.0 mm 0.00 in0.0 mm
10:00 PM 60.9°F16.1°C 46.0°F7.8°C 58% Calm Calm -- 30.19 in1022.4 mb - 0.00 in0.0 mm 0.00 in0.0 mm
10:10 PM 60.8°F16.0°C 45.9°F7.7°C 58% Calm Calm -- 30.19 in1022.4 mb - 0.00 in0.0 mm 0.00 in0.0 mm
10:20 PM 60.3°F15.7°C 45.9°F7.7°C 59% Calm Calm -- 30.20 in1022.7 mb - 0.00 in0.0 mm 0.00 in0.0 mm
10:30 PM 60.2°F15.7°C 46.3°F7.9°C 60% Calm Calm -- 30.20 in1022.7 mb - 0.00 in0.0 mm 0.00 in0.0 mm
10:40 PM 60.2°F15.7°C 46.2°F7.9°C 60% Calm Calm -- 30.20 in1022.7 mb - 0.00 in0.0 mm 0.00 in0.0 mm
10:50 PM 60.1°F15.6°C 46.6°F8.1°C 61% Calm Calm -- 30.20 in1022.7 mb - 0.00 in0.0 mm 0.00 in0.0 mm
11:00 PM 59.9°F15.5°C 46.5°F8.1°C 61% Calm Calm 1.2 mph1.9 kmh 30.20 in1022.7 mb - 0.00 in0.0 mm 0.00 in0.0 mm
11:10 PM 59.8°F15.4°C 47.2°F8.4°C 63% Calm Calm 1.2 mph1.9 kmh 30.20 in1022.7 mb - 0.00 in0.0 mm 0.00 in0.0 mm
11:20 PM 59.7°F15.4°C 47.5°F8.6°C 64% Calm Calm 1.2 mph1.9 kmh 30.20 in1022.7 mb - 0.00 in0.0 mm 0.00 in0.0 mm
11:30 PM 59.5°F15.3°C 47.8°F8.8°C 65% Calm Calm 1.2 mph1.9 kmh 30.20 in1022.7 mb - 0.00 in0.0 mm 0.00 in0.0 mm
11:40 PM 59.3°F15.2°C 48.4°F9.1°C 67% Calm Calm -- 30.20 in1022.7 mb - 0.00 in0.0 mm 0.00 in0.0 mm